sensor_id;sensor_type;location;lat;lon;timestamp;pressure;altitude;pressure_sealevel;temperature;humidity
40948;BME280;49382;-25.924;28.194;2023-07-13T00:00:58;86228.78;;;9.22;38.29
40948;BME280;49382;-25.924;28.194;2023-07-13T00:03:23;86226.13;;;9.53;37.44
40948;BME280;49382;-25.924;28.194;2023-07-13T00:05:57;86224.87;;;9.85;37.71
40948;BME280;49382;-25.924;28.194;2023-07-13T00:08:14;86218.69;;;10.61;36.93
40948;BME280;49382;-25.924;28.194;2023-07-13T00:10:41;86218.21;;;9.43;38.30
40948;BME280;49382;-25.924;28.194;2023-07-13T00:13:05;86213.45;;;10.00;37.15
40948;BME280;49382;-25.924;28.194;2023-07-13T00:15:30;86216.29;;;9.89;38.20
40948;BME280;49382;-25.924;28.194;2023-07-13T00:17:56;86213.86;;;9.72;37.47
40948;BME280;49382;-25.924;28.194;2023-07-13T00:20:22;86213.04;;;10.13;37.78
40948;BME280;49382;-25.924;28.194;2023-07-13T00:22:47;86213.23;;;9.24;38.44
40948;BME280;49382;-25.924;28.194;2023-07-13T00:25:12;86210.05;;;9.87;37.78
40948;BME280;49382;-25.924;28.194;2023-07-13T00:27:38;86212.37;;;9.79;37.86
40948;BME280;49382;-25.924;28.194;2023-07-13T00:30:03;86207.19;;;10.45;37.64
40948;BME280;49382;-25.924;28.194;2023-07-13T00:32:28;86204.62;;;9.88;37.70
40948;BME280;49382;-25.924;28.194;2023-07-13T00:34:53;86206.10;;;10.43;37.36
40948;BME280;49382;-25.924;28.194;2023-07-13T00:37:18;86204.01;;;9.97;37.40
40948;BME280;49382;-25.924;28.194;2023-07-13T00:39:44;86201.70;;;10.56;37.05
40948;BME280;49382;-25.924;28.194;2023-07-13T00:42:09;86201.40;;;10.23;36.87
40948;BME280;49382;-25.924;28.194;2023-07-13T00:44:34;86202.91;;;9.96;37.45
40948;BME280;49382;-25.924;28.194;2023-07-13T00:47:00;86197.34;;;10.01;37.13
40948;BME280;49382;-25.924;28.194;2023-07-13T00:49:27;86199.14;;;10.04;36.92
40948;BME280;49382;-25.924;28.194;2023-07-13T00:51:53;86194.97;;;10.02;37.01
40948;BME280;49382;-25.924;28.194;2023-07-13T00:54:22;86191.23;;;10.37;36.67
40948;BME280;49382;-25.924;28.194;2023-07-13T00:56:44;86190.36;;;9.98;37.04
40948;BME280;49382;-25.924;28.194;2023-07-13T00:59:09;86192.96;;;9.99;35.68
40948;BME280;49382;-25.924;28.194;2023-07-13T01:01:33;86190.95;;;9.67;37.30
40948;BME280;49382;-25.924;28.194;2023-07-13T01:03:59;86187.32;;;9.67;37.73
40948;BME280;49382;-25.924;28.194;2023-07-13T01:06:24;86180.60;;;9.60;37.53
40948;BME280;49382;-25.924;28.194;2023-07-13T01:08:50;86182.18;;;9.64;38.01
40948;BME280;49382;-25.924;28.194;2023-07-13T01:11:20;86173.64;;;9.56;37.56
40948;BME280;49382;-25.924;28.194;2023-07-13T01:13:42;86173.28;;;9.45;37.73
40948;BME280;49382;-25.924;28.194;2023-07-13T01:16:15;86168.86;;;10.03;36.79
40948;BME280;49382;-25.924;28.194;2023-07-13T01:18:33;86165.51;;;10.46;36.50
40948;BME280;49382;-25.924;28.194;2023-07-13T01:21:00;86161.07;;;9.99;36.45
40948;BME280;49382;-25.924;28.194;2023-07-13T01:23:25;86161.88;;;9.91;37.07
40948;BME280;49382;-25.924;28.194;2023-07-13T01:25:49;86162.32;;;9.77;37.18
40948;BME280;49382;-25.924;28.194;2023-07-13T01:28:14;86163.70;;;9.36;37.09
40948;BME280;49382;-25.924;28.194;2023-07-13T01:30:41;86170.83;;;9.80;37.32
40948;BME280;49382;-25.924;28.194;2023-07-13T01:33:05;86162.53;;;9.56;37.09
40948;BME280;49382;-25.924;28.194;2023-07-13T01:35:30;86162.02;;;9.64;36.38
40948;BME280;49382;-25.924;28.194;2023-07-13T01:37:56;86168.02;;;9.49;35.52
40948;BME280;49382;-25.924;28.194;2023-07-13T01:40:22;86165.01;;;8.55;37.12
40948;BME280;49382;-25.924;28.194;2023-07-13T01:42:47;86164.46;;;8.87;37.70
40948;BME280;49382;-25.924;28.194;2023-07-13T01:45:13;86165.74;;;8.75;38.49
40948;BME280;49382;-25.924;28.194;2023-07-13T01:47:38;86161.70;;;8.64;38.75
40948;BME280;49382;-25.924;28.194;2023-07-13T01:50:04;86165.11;;;8.96;37.92
40948;BME280;49382;-25.924;28.194;2023-07-13T01:52:29;86167.24;;;9.15;37.80
40948;BME280;49382;-25.924;28.194;2023-07-13T01:54:54;86169.26;;;9.31;37.92
40948;BME280;49382;-25.924;28.194;2023-07-13T01:57:20;86168.93;;;9.16;36.69
40948;BME280;49382;-25.924;28.194;2023-07-13T01:59:44;86165.25;;;8.11;37.92
40948;BME280;49382;-25.924;28.194;2023-07-13T02:02:10;86163.86;;;8.49;38.69
40948;BME280;49382;-25.924;28.194;2023-07-13T02:04:36;86162.95;;;9.11;38.19
40948;BME280;49382;-25.924;28.194;2023-07-13T02:07:02;86164.41;;;9.48;37.18
40948;BME280;49382;-25.924;28.194;2023-07-13T02:09:27;86158.67;;;8.79;36.93
40948;BME280;49382;-25.924;28.194;2023-07-13T02:11:52;86164.31;;;8.62;37.48
40948;BME280;49382;-25.924;28.194;2023-07-13T02:14:18;86164.83;;;8.94;38.32
40948;BME280;49382;-25.924;28.194;2023-07-13T02:16:43;86168.02;;;9.37;37.88
40948;BME280;49382;-25.924;28.194;2023-07-13T02:19:09;86165.88;;;9.75;37.21
40948;BME280;49382;-25.924;28.194;2023-07-13T02:21:34;86169.32;;;9.59;37.80
40948;BME280;49382;-25.924;28.194;2023-07-13T02:23:59;86168.93;;;9.53;37.75
40948;BME280;49382;-25.924;28.194;2023-07-13T02:26:24;86163.36;;;9.51;37.62
40948;BME280;49382;-25.924;28.194;2023-07-13T02:28:49;86160.68;;;9.34;37.88
40948;BME280;49382;-25.924;28.194;2023-07-13T02:31:16;86158.00;;;8.99;38.40
40948;BME280;49382;-25.924;28.194;2023-07-13T02:33:40;86155.89;;;9.22;37.07
40948;BME280;49382;-25.924;28.194;2023-07-13T02:36:05;86155.20;;;8.39;37.32
40948;BME280;49382;-25.924;28.194;2023-07-13T02:38:32;86157.17;;;8.06;38.25
40948;BME280;49382;-25.924;28.194;2023-07-13T02:40:56;86155.73;;;8.48;38.65
40948;BME280;49382;-25.924;28.194;2023-07-13T02:43:21;86154.12;;;8.60;38.74
40948;BME280;49382;-25.924;28.194;2023-07-13T02:45:47;86153.47;;;8.95;37.96
40948;BME280;49382;-25.924;28.194;2023-07-13T02:48:14;86154.42;;;8.00;38.27
40948;BME280;49382;-25.924;28.194;2023-07-13T02:50:38;86157.57;;;8.25;38.44
40948;BME280;49382;-25.924;28.194;2023-07-13T02:53:03;86158.04;;;8.44;39.04
40948;BME280;49382;-25.924;28.194;2023-07-13T02:55:29;86162.15;;;8.39;38.99
40948;BME280;49382;-25.924;28.194;2023-07-13T02:57:54;86158.41;;;8.59;37.91
40948;BME280;49382;-25.924;28.194;2023-07-13T03:00:20;86155.36;;;7.80;38.44
40948;BME280;49382;-25.924;28.194;2023-07-13T03:02:45;86158.76;;;7.85;39.09
40948;BME280;49382;-25.924;28.194;2023-07-13T03:05:11;86160.55;;;8.61;38.88
40948;BME280;49382;-25.924;28.194;2023-07-13T03:07:36;86153.29;;;8.77;37.75
40948;BME280;49382;-25.924;28.194;2023-07-13T03:10:03;86157.68;;;8.26;38.69
40948;BME280;49382;-25.924;28.194;2023-07-13T03:12:28;86159.03;;;8.26;39.03
40948;BME280;49382;-25.924;28.194;2023-07-13T03:14:53;86157.48;;;8.42;39.08
40948;BME280;49382;-25.924;28.194;2023-07-13T03:17:20;86157.03;;;8.67;38.78
40948;BME280;49382;-25.924;28.194;2023-07-13T03:19:45;86157.75;;;8.44;39.07
40948;BME280;49382;-25.924;28.194;2023-07-13T03:22:10;86158.39;;;8.38;39.17
40948;BME280;49382;-25.924;28.194;2023-07-13T03:24:36;86158.78;;;8.80;39.10
40948;BME280;49382;-25.924;28.194;2023-07-13T03:27:04;86162.18;;;8.18;39.74
40948;BME280;49382;-25.924;28.194;2023-07-13T03:29:26;86162.26;;;8.60;39.65
40948;BME280;49382;-25.924;28.194;2023-07-13T03:31:51;86168.39;;;8.73;39.07
40948;BME280;49382;-25.924;28.194;2023-07-13T03:34:17;86169.24;;;9.31;38.49
40948;BME280;49382;-25.924;28.194;2023-07-13T03:36:42;86167.20;;;8.69;39.07
40948;BME280;49382;-25.924;28.194;2023-07-13T03:39:08;86169.62;;;8.64;39.10
40948;BME280;49382;-25.924;28.194;2023-07-13T03:41:33;86172.01;;;8.82;39.21
40948;BME280;49382;-25.924;28.194;2023-07-13T03:43:58;86176.88;;;9.08;38.83
40948;BME280;49382;-25.924;28.194;2023-07-13T03:46:24;86177.31;;;9.28;38.68
40948;BME280;49382;-25.924;28.194;2023-07-13T03:48:50;86180.00;;;8.30;38.43
40948;BME280;49382;-25.924;28.194;2023-07-13T03:51:16;86183.75;;;8.75;38.97
40948;BME280;49382;-25.924;28.194;2023-07-13T03:53:42;86180.39;;;8.60;39.12
40948;BME280;49382;-25.924;28.194;2023-07-13T03:56:06;86180.13;;;9.04;38.62
40948;BME280;49382;-25.924;28.194;2023-07-13T03:58:33;86181.14;;;9.16;38.47
40948;BME280;49382;-25.924;28.194;2023-07-13T04:00:58;86182.44;;;8.93;38.72
40948;BME280;49382;-25.924;28.194;2023-07-13T04:03:23;86185.45;;;8.80;38.94
40948;BME280;49382;-25.924;28.194;2023-07-13T04:05:48;86185.61;;;8.82;38.84
40948;BME280;49382;-25.924;28.194;2023-07-13T04:08:14;86187.33;;;9.12;38.40
40948;BME280;49382;-25.924;28.194;2023-07-13T04:10:39;86186.69;;;8.92;37.97
40948;BME280;49382;-25.924;28.194;2023-07-13T04:13:04;86188.69;;;8.19;38.63
40948;BME280;49382;-25.924;28.194;2023-07-13T04:15:31;86190.72;;;8.16;37.94
40948;BME280;49382;-25.924;28.194;2023-07-13T04:17:55;86189.08;;;7.91;38.16
40948;BME280;49382;-25.924;28.194;2023-07-13T04:20:21;86190.49;;;7.84;38.39
40948;BME280;49382;-25.924;28.194;2023-07-13T04:22:46;86188.60;;;8.15;38.57
40948;BME280;49382;-25.924;28.194;2023-07-13T04:25:12;86184.56;;;7.57;39.46
40948;BME280;49382;-25.924;28.194;2023-07-13T04:27:38;86187.05;;;7.24;40.28
40948;BME280;49382;-25.924;28.194;2023-07-13T04:30:03;86192.26;;;7.99;39.52
40948;BME280;49382;-25.924;28.194;2023-07-13T04:32:28;86190.01;;;8.77;39.13
40948;BME280;49382;-25.924;28.194;2023-07-13T04:34:54;86190.47;;;8.39;39.14
40948;BME280;49382;-25.924;28.194;2023-07-13T04:37:21;86192.28;;;8.66;38.65
40948;BME280;49382;-25.924;28.194;2023-07-13T04:39:45;86193.16;;;8.24;38.80
40948;BME280;49382;-25.924;28.194;2023-07-13T04:42:11;86194.56;;;8.34;38.91
40948;BME280;49382;-25.924;28.194;2023-07-13T04:44:37;86198.13;;;8.02;38.58
40948;BME280;49382;-25.924;28.194;2023-07-13T04:47:02;86198.68;;;8.12;38.65
40948;BME280;49382;-25.924;28.194;2023-07-13T04:49:27;86196.43;;;8.43;37.92
40948;BME280;49382;-25.924;28.194;2023-07-13T04:51:52;86198.52;;;7.82;38.62
40948;BME280;49382;-25.924;28.194;2023-07-13T04:54:17;86196.00;;;8.03;37.54
40948;BME280;49382;-25.924;28.194;2023-07-13T04:56:42;86192.75;;;7.56;37.67
40948;BME280;49382;-25.924;28.194;2023-07-13T04:59:08;86194.34;;;7.96;39.16
40948;BME280;49382;-25.924;28.194;2023-07-13T05:01:33;86193.12;;;7.96;40.43
40948;BME280;49382;-25.924;28.194;2023-07-13T05:03:59;86197.48;;;8.28;40.17
40948;BME280;49382;-25.924;28.194;2023-07-13T05:06:25;86194.28;;;8.46;39.73
40948;BME280;49382;-25.924;28.194;2023-07-13T05:08:50;86199.05;;;8.19;39.59
40948;BME280;49382;-25.924;28.194;2023-07-13T05:11:17;86206.08;;;8.20;37.52
40948;BME280;49382;-25.924;28.194;2023-07-13T05:13:42;86203.33;;;8.05;38.05
40948;BME280;49382;-25.924;28.194;2023-07-13T05:16:07;86202.19;;;7.66;38.77
40948;BME280;49382;-25.924;28.194;2023-07-13T05:18:33;86206.47;;;8.23;39.57
40948;BME280;49382;-25.924;28.194;2023-07-13T05:21:00;86213.15;;;8.10;39.66
40948;BME280;49382;-25.924;28.194;2023-07-13T05:23:24;86215.04;;;8.74;39.23
40948;BME280;49382;-25.924;28.194;2023-07-13T05:25:49;86213.81;;;8.26;38.97
40948;BME280;49382;-25.924;28.194;2023-07-13T05:28:14;86217.15;;;8.66;39.26
40948;BME280;49382;-25.924;28.194;2023-07-13T05:30:40;86219.52;;;8.81;38.83
40948;BME280;49382;-25.924;28.194;2023-07-13T05:33:05;86224.22;;;9.20;38.15
40948;BME280;49382;-25.924;28.194;2023-07-13T05:35:30;86219.81;;;9.37;37.98
40948;BME280;49382;-25.924;28.194;2023-07-13T05:37:55;86225.44;;;9.09;38.18
40948;BME280;49382;-25.924;28.194;2023-07-13T05:40:20;86223.60;;;9.67;37.15
40948;BME280;49382;-25.924;28.194;2023-07-13T05:42:46;86224.05;;;10.00;37.08
40948;BME280;49382;-25.924;28.194;2023-07-13T05:45:12;86224.37;;;9.87;37.32
40948;BME280;49382;-25.924;28.194;2023-07-13T05:47:37;86229.09;;;9.62;37.54
40948;BME280;49382;-25.924;28.194;2023-07-13T05:50:02;86230.54;;;9.50;37.90
40948;BME280;49382;-25.924;28.194;2023-07-13T05:52:28;86225.33;;;10.07;37.00
40948;BME280;49382;-25.924;28.194;2023-07-13T05:54:53;86229.18;;;9.96;37.22
40948;BME280;49382;-25.924;28.194;2023-07-13T05:57:19;86227.14;;;10.06;36.87
40948;BME280;49382;-25.924;28.194;2023-07-13T05:59:44;86227.66;;;10.22;37.73
40948;BME280;49382;-25.924;28.194;2023-07-13T06:02:10;86227.53;;;10.27;37.56
40948;BME280;49382;-25.924;28.194;2023-07-13T06:04:35;86230.60;;;10.48;37.29
40948;BME280;49382;-25.924;28.194;2023-07-13T06:07:01;86232.10;;;10.54;38.10
40948;BME280;49382;-25.924;28.194;2023-07-13T06:09:26;86234.71;;;10.61;38.04
40948;BME280;49382;-25.924;28.194;2023-07-13T06:11:52;86238.65;;;10.75;37.44
40948;BME280;49382;-25.924;28.194;2023-07-13T06:14:17;86242.28;;;11.38;37.09
40948;BME280;49382;-25.924;28.194;2023-07-13T06:16:43;86243.60;;;11.34;37.45
40948;BME280;49382;-25.924;28.194;2023-07-13T06:19:09;86242.59;;;10.95;38.12
40948;BME280;49382;-25.924;28.194;2023-07-13T06:21:34;86244.69;;;11.15;37.39
40948;BME280;49382;-25.924;28.194;2023-07-13T06:24:00;86247.80;;;12.00;36.59
40948;BME280;49382;-25.924;28.194;2023-07-13T06:29:09;86252.73;;;12.14;37.02
40948;BME280;49382;-25.924;28.194;2023-07-13T06:31:23;86253.98;;;11.87;36.86
40948;BME280;49382;-25.924;28.194;2023-07-13T06:33:42;86253.99;;;11.94;36.59
40948;BME280;49382;-25.924;28.194;2023-07-13T06:36:09;86255.42;;;12.83;36.00
40948;BME280;49382;-25.924;28.194;2023-07-13T06:38:35;86256.14;;;12.92;35.99
40948;BME280;49382;-25.924;28.194;2023-07-13T06:41:01;86257.75;;;12.89;35.50
40948;BME280;49382;-25.924;28.194;2023-07-13T06:43:26;86264.75;;;14.74;33.51
40948;BME280;49382;-25.924;28.194;2023-07-13T06:45:51;86265.80;;;17.97;29.53
40948;BME280;49382;-25.924;28.194;2023-07-13T06:48:15;86272.94;;;20.40;26.38
40948;BME280;49382;-25.924;28.194;2023-07-13T06:50:44;86278.63;;;20.71;25.80
40948;BME280;49382;-25.924;28.194;2023-07-13T06:53:07;86276.49;;;22.87;22.61
40948;BME280;49382;-25.924;28.194;2023-07-13T06:55:33;86280.42;;;23.19;21.52
40948;BME280;49382;-25.924;28.194;2023-07-13T06:57:57;86279.32;;;23.16;21.12
40948;BME280;49382;-25.924;28.194;2023-07-13T07:00:27;86281.73;;;24.41;20.39
40948;BME280;49382;-25.924;28.194;2023-07-13T07:02:49;86281.06;;;25.01;19.05
40948;BME280;49382;-25.924;28.194;2023-07-13T07:05:13;86280.09;;;24.50;18.64
40948;BME280;49382;-25.924;28.194;2023-07-13T07:07:40;86278.80;;;24.50;18.97
40948;BME280;49382;-25.924;28.194;2023-07-13T07:10:07;86276.99;;;24.90;18.62
40948;BME280;49382;-25.924;28.194;2023-07-13T07:12:30;86272.47;;;25.60;18.62
40948;BME280;49382;-25.924;28.194;2023-07-13T07:14:54;86273.40;;;25.85;17.60
40948;BME280;49382;-25.924;28.194;2023-07-13T07:17:22;86271.63;;;23.84;19.57
40948;BME280;49382;-25.924;28.194;2023-07-13T07:19:45;86267.18;;;26.39;17.44
40948;BME280;49382;-25.924;28.194;2023-07-13T07:22:13;86266.55;;;26.61;17.26
40948;BME280;49382;-25.924;28.194;2023-07-13T07:24:39;86265.22;;;25.37;17.59
40948;BME280;49382;-25.924;28.194;2023-07-13T07:27:04;86266.77;;;25.63;17.21
40948;BME280;49382;-25.924;28.194;2023-07-13T07:29:29;86262.94;;;26.57;16.54
40948;BME280;49382;-25.924;28.194;2023-07-13T07:31:56;86264.84;;;27.11;16.48
40948;BME280;49382;-25.924;28.194;2023-07-13T07:34:21;86260.48;;;27.04;16.58
40948;BME280;49382;-25.924;28.194;2023-07-13T07:36:46;86259.35;;;27.51;16.55
40948;BME280;49382;-25.924;28.194;2023-07-13T07:39:13;86257.09;;;25.60;17.28
40948;BME280;49382;-25.924;28.194;2023-07-13T07:41:37;86256.22;;;25.97;17.54
40948;BME280;49382;-25.924;28.194;2023-07-13T07:44:02;86255.02;;;25.33;17.34
40948;BME280;49382;-25.924;28.194;2023-07-13T07:46:28;86251.38;;;23.95;18.24
40948;BME280;49382;-25.924;28.194;2023-07-13T07:48:52;86254.52;;;24.98;17.49
40948;BME280;49382;-25.924;28.194;2023-07-13T07:51:20;86258.39;;;26.04;16.67
40948;BME280;49382;-25.924;28.194;2023-07-13T07:53:44;86260.18;;;25.36;17.51
40948;BME280;49382;-25.924;28.194;2023-07-13T07:56:09;86259.26;;;24.62;18.47
40948;BME280;49382;-25.924;28.194;2023-07-13T07:58:35;86255.21;;;24.82;17.45
40948;BME280;49382;-25.924;28.194;2023-07-13T08:01:05;86255.70;;;24.90;17.45
40948;BME280;49382;-25.924;28.194;2023-07-13T08:03:26;86257.11;;;24.09;17.96
40948;BME280;49382;-25.924;28.194;2023-07-13T08:05:54;86256.23;;;25.44;17.33
40948;BME280;49382;-25.924;28.194;2023-07-13T08:08:17;86257.47;;;27.11;16.33
40948;BME280;49382;-25.924;28.194;2023-07-13T08:10:44;86254.50;;;24.89;18.07
40948;BME280;49382;-25.924;28.194;2023-07-13T08:13:08;86249.68;;;23.87;19.55
40948;BME280;49382;-25.924;28.194;2023-07-13T08:15:35;86248.07;;;24.37;18.61
40948;BME280;49382;-25.924;28.194;2023-07-13T08:18:01;86247.22;;;24.11;18.51
40948;BME280;49382;-25.924;28.194;2023-07-13T08:20:27;86247.71;;;24.78;17.77
40948;BME280;49382;-25.924;28.194;2023-07-13T08:22:52;86246.99;;;25.13;17.57
40948;BME280;49382;-25.924;28.194;2023-07-13T08:25:17;86241.70;;;23.57;18.65
40948;BME280;49382;-25.924;28.194;2023-07-13T08:27:43;86242.15;;;23.43;19.17
40948;BME280;49382;-25.924;28.194;2023-07-13T08:30:09;86235.45;;;23.54;18.29
40948;BME280;49382;-25.924;28.194;2023-07-13T08:32:33;86233.96;;;23.49;19.47
40948;BME280;49382;-25.924;28.194;2023-07-13T08:35:00;86229.45;;;23.50;19.31
40948;BME280;49382;-25.924;28.194;2023-07-13T08:37:26;86230.56;;;24.59;18.37
40948;BME280;49382;-25.924;28.194;2023-07-13T08:39:50;86226.74;;;24.21;17.91
40948;BME280;49382;-25.924;28.194;2023-07-13T08:42:32;86222.12;;;24.30;18.06
40948;BME280;49382;-25.924;28.194;2023-07-13T08:44:50;86222.30;;;24.38;18.53
40948;BME280;49382;-25.924;28.194;2023-07-13T08:47:07;86217.87;;;24.33;17.26
40948;BME280;49382;-25.924;28.194;2023-07-13T08:49:33;86216.10;;;24.26;17.65
40948;BME280;49382;-25.924;28.194;2023-07-13T08:52:00;86220.80;;;23.38;18.18
40948;BME280;49382;-25.924;28.194;2023-07-13T08:54:29;86217.26;;;23.58;18.19
40948;BME280;49382;-25.924;28.194;2023-07-13T08:56:51;86213.24;;;24.15;17.40
40948;BME280;49382;-25.924;28.194;2023-07-13T08:59:16;86209.83;;;23.32;18.18
40948;BME280;49382;-25.924;28.194;2023-07-13T09:04:14;86203.78;;;23.56;18.87
40948;BME280;49382;-25.924;28.194;2023-07-13T09:06:44;86195.87;;;23.38;19.67
40948;BME280;49382;-25.924;28.194;2023-07-13T09:09:00;86194.40;;;23.18;19.24
40948;BME280;49382;-25.924;28.194;2023-07-13T09:11:34;86196.90;;;23.01;20.74
40948;BME280;49382;-25.924;28.194;2023-07-13T09:13:55;86182.19;;;24.31;18.28
40948;BME280;49382;-25.924;28.194;2023-07-13T09:16:14;86176.71;;;21.67;21.82
40948;BME280;49382;-25.924;28.194;2023-07-13T09:18:42;86179.60;;;21.68;22.72
40948;BME280;49382;-25.924;28.194;2023-07-13T09:21:09;86173.68;;;21.39;22.26
40948;BME280;49382;-25.924;28.194;2023-07-13T09:23:31;86166.43;;;20.51;23.88
40948;BME280;49382;-25.924;28.194;2023-07-13T09:26:00;86168.67;;;21.75;21.97
40948;BME280;49382;-25.924;28.194;2023-07-13T09:28:23;86165.18;;;21.67;21.29
40948;BME280;49382;-25.924;28.194;2023-07-13T09:30:49;86159.73;;;21.29;22.03
40948;BME280;49382;-25.924;28.194;2023-07-13T09:33:12;86153.35;;;21.33;22.11
40948;BME280;49382;-25.924;28.194;2023-07-13T09:35:37;86166.51;;;20.89;22.09
40948;BME280;49382;-25.924;28.194;2023-07-13T09:38:12;86157.10;;;21.17;20.24
40948;BME280;49382;-25.924;28.194;2023-07-13T09:40:38;86151.12;;;21.33;20.29
40948;BME280;49382;-25.924;28.194;2023-07-13T09:42:55;86146.83;;;20.91;20.10
40948;BME280;49382;-25.924;28.194;2023-07-13T09:45:28;86138.64;;;20.67;20.69
40948;BME280;49382;-25.924;28.194;2023-07-13T09:47:45;86130.84;;;20.29;20.57
40948;BME280;49382;-25.924;28.194;2023-07-13T09:50:15;86128.60;;;20.21;21.51
40948;BME280;49382;-25.924;28.194;2023-07-13T09:52:42;86130.10;;;20.69;20.79
40948;BME280;49382;-25.924;28.194;2023-07-13T09:55:02;86121.93;;;20.76;20.31
40948;BME280;49382;-25.924;28.194;2023-07-13T09:57:28;86113.51;;;19.07;21.88
40948;BME280;49382;-25.924;28.194;2023-07-13T09:59:54;86113.51;;;20.54;22.80
40948;BME280;49382;-25.924;28.194;2023-07-13T10:02:23;86117.01;;;20.75;21.08
40948;BME280;49382;-25.924;28.194;2023-07-13T10:04:43;86107.42;;;20.44;22.28
40948;BME280;49382;-25.924;28.194;2023-07-13T10:07:12;86100.89;;;19.61;21.42
40948;BME280;49382;-25.924;28.194;2023-07-13T10:09:35;86094.33;;;20.09;20.93
40948;BME280;49382;-25.924;28.194;2023-07-13T10:12:00;86091.41;;;19.15;21.37
40948;BME280;49382;-25.924;28.194;2023-07-13T10:14:25;86088.53;;;19.93;20.82
40948;BME280;49382;-25.924;28.194;2023-07-13T10:16:55;86082.65;;;20.25;20.98
40948;BME280;49382;-25.924;28.194;2023-07-13T10:19:19;86082.47;;;20.38;20.14
40948;BME280;49382;-25.924;28.194;2023-07-13T10:21:46;86067.16;;;19.78;19.54
40948;BME280;49382;-25.924;28.194;2023-07-13T10:24:17;86064.52;;;18.79;21.39
40948;BME280;49382;-25.924;28.194;2023-07-13T10:26:33;86061.86;;;19.95;21.30
40948;BME280;49382;-25.924;28.194;2023-07-13T10:28:59;86061.57;;;19.92;20.26
40948;BME280;49382;-25.924;28.194;2023-07-13T10:31:22;86061.25;;;20.15;20.53
40948;BME280;49382;-25.924;28.194;2023-07-13T10:33:47;86045.88;;;18.96;21.13
40948;BME280;49382;-25.924;28.194;2023-07-13T10:36:16;86054.30;;;19.50;20.92
40948;BME280;49382;-25.924;28.194;2023-07-13T10:38:38;86044.93;;;18.41;21.40
40948;BME280;49382;-25.924;28.194;2023-07-13T10:41:05;86035.05;;;19.65;21.48
40948;BME280;49382;-25.924;28.194;2023-07-13T10:43:33;86023.66;;;19.58;20.71
40948;BME280;49382;-25.924;28.194;2023-07-13T10:45:54;86026.79;;;19.42;20.05
40948;BME280;49382;-25.924;28.194;2023-07-13T10:48:19;86026.43;;;19.15;20.10
40948;BME280;49382;-25.924;28.194;2023-07-13T10:50:46;86021.29;;;19.62;19.64
40948;BME280;49382;-25.924;28.194;2023-07-13T10:53:18;86014.15;;;19.61;20.32
40948;BME280;49382;-25.924;28.194;2023-07-13T10:55:39;86002.26;;;19.72;21.33
40948;BME280;49382;-25.924;28.194;2023-07-13T10:58:03;86002.74;;;18.94;21.76
40948;BME280;49382;-25.924;28.194;2023-07-13T11:00:30;85997.65;;;19.47;20.04
40948;BME280;49382;-25.924;28.194;2023-07-13T11:02:58;85986.56;;;18.99;20.33
40948;BME280;49382;-25.924;28.194;2023-07-13T11:05:26;85992.86;;;19.28;20.84
40948;BME280;49382;-25.924;28.194;2023-07-13T11:07:52;85985.76;;;18.88;19.86
40948;BME280;49382;-25.924;28.194;2023-07-13T11:10:46;85979.29;;;18.01;20.13
40948;BME280;49382;-25.924;28.194;2023-07-13T11:15:06;85979.45;;;18.70;20.85
40948;BME280;49382;-25.924;28.194;2023-07-13T11:17:33;85969.56;;;17.76;21.27
40948;BME280;49382;-25.924;28.194;2023-07-13T11:19:52;85975.33;;;18.84;21.01
40948;BME280;49382;-25.924;28.194;2023-07-13T11:22:23;85962.68;;;18.25;20.98
40948;BME280;49382;-25.924;28.194;2023-07-13T11:24:49;85959.01;;;18.80;21.06
40948;BME280;49382;-25.924;28.194;2023-07-13T11:29:37;85946.97;;;19.31;19.38
40948;BME280;49382;-25.924;28.194;2023-07-13T11:31:59;85959.70;;;18.71;20.05
40948;BME280;49382;-25.924;28.194;2023-07-13T11:34:28;85953.91;;;19.51;18.76
40948;BME280;49382;-25.924;28.194;2023-07-13T11:36:48;85949.87;;;18.36;19.77
40948;BME280;49382;-25.924;28.194;2023-07-13T11:39:19;85953.95;;;18.18;21.86
40948;BME280;49382;-25.924;28.194;2023-07-13T11:41:45;85938.01;;;19.46;18.83
40948;BME280;49382;-25.924;28.194;2023-07-13T11:44:12;85940.52;;;19.34;19.20
40948;BME280;49382;-25.924;28.194;2023-07-13T11:46:30;85942.35;;;18.59;19.99
40948;BME280;49382;-25.924;28.194;2023-07-13T11:48:55;85950.83;;;17.97;20.77
40948;BME280;49382;-25.924;28.194;2023-07-13T11:51:23;85942.57;;;18.19;20.75
40948;BME280;49382;-25.924;28.194;2023-07-13T11:53:47;85934.15;;;18.11;20.72
40948;BME280;49382;-25.924;28.194;2023-07-13T11:56:11;85934.32;;;18.60;20.19
40948;BME280;49382;-25.924;28.194;2023-07-13T11:58:36;85935.77;;;17.97;21.63
40948;BME280;49382;-25.924;28.194;2023-07-13T12:01:02;85941.85;;;17.96;21.46
40948;BME280;49382;-25.924;28.194;2023-07-13T12:03:27;85929.99;;;18.57;21.25
40948;BME280;49382;-25.924;28.194;2023-07-13T12:05:57;85936.88;;;18.00;21.19
40948;BME280;49382;-25.924;28.194;2023-07-13T12:08:18;85931.39;;;17.46;22.03
40948;BME280;49382;-25.924;28.194;2023-07-13T12:10:43;85928.59;;;18.54;21.45
40948;BME280;49382;-25.924;28.194;2023-07-13T12:13:15;85924.54;;;18.29;21.59
40948;BME280;49382;-25.924;28.194;2023-07-13T12:15:38;85918.54;;;18.81;20.32
40948;BME280;49382;-25.924;28.194;2023-07-13T12:20:37;85916.12;;;17.66;20.67
40948;BME280;49382;-25.924;28.194;2023-07-13T12:22:58;85916.13;;;18.90;20.21
40948;BME280;49382;-25.924;28.194;2023-07-13T12:25:20;85920.07;;;18.24;20.21
40948;BME280;49382;-25.924;28.194;2023-07-13T12:27:48;85914.34;;;18.71;20.44
40948;BME280;49382;-25.924;28.194;2023-07-13T12:32:35;85907.31;;;18.44;19.81
40948;BME280;49382;-25.924;28.194;2023-07-13T12:37:24;85909.28;;;18.66;19.53
40948;BME280;49382;-25.924;28.194;2023-07-13T12:39:47;85913.53;;;18.31;20.32
40948;BME280;49382;-25.924;28.194;2023-07-13T12:42:19;85902.64;;;17.68;19.84
40948;BME280;49382;-25.924;28.194;2023-07-13T12:44:41;85904.79;;;18.79;19.44
40948;BME280;49382;-25.924;28.194;2023-07-13T12:47:06;85897.58;;;17.86;20.17
40948;BME280;49382;-25.924;28.194;2023-07-13T12:49:30;85894.84;;;17.81;19.45
40948;BME280;49382;-25.924;28.194;2023-07-13T12:51:55;85891.73;;;18.69;19.49